Fort Nelson Airport, British Columbia

Past 24 Hour Conditions

This table is a summary of hourly weather conditions for the past 24 hours. This summary includes the following parameters: temperature, humidity, dew point, wind speed and direction, air pressure, visibility and/or wind chill and humidex.
Date / Time
(PDT)
Conditions Temp (°F) Humidity (%) Dew Point (°F) Wind (mph) Pressure (inches) Vis (mi) Humidex
23 July 2014
13:00 Mainly Sunny 71 51 52 ENE 6 29.9 30 *
12:00 Mainly Sunny 68 76 60 ENE 2 29.9 30 *
11:00 Mainly Sunny 62 89 59 calm 30.0 30 *
10:00 Mist 59 98 58 S 3 30.0 4 *
9:00 Mist 55 100 55 S 3 30.0 0.7 *
8:00 Fog 55 100 55 SE 3 30.0 0.2 *
7:00 Fog 54   100 54 S 3 30.0 0.2 *
6:00 Fog 54   100 54 SW 2 30.0 0.2 *
5:00 Fog 54   100 54 SE 2 30.0 0.2 *
4:00 Partly Cloudy 55 100 55 calm 30.0 15 *
3:00 Fog 55 100 55 SE 6 30.0 0.1 *
2:00 Mist 54   99 54 SW 5 30.0 5 *
1:00 Fog 55 99 54 N 2 30.0 0.5 *
00:00 Partly Cloudy 54   98 54 WSW 3 30.0 15 *
22 July 2014
23:00 Fog Patches 56 98 55 WSW 5 30.0 15 *
22:00 Mainly Clear 58 95 57 W 2 30.0 30 *
21:00 Partly Cloudy 60 93 58 NE 7 30.0 30 *
20:00 Thunderstorm with light rainshowers 59 96 58 NW 8 30.1 6 *
19:00 Thunderstorm with light rainshowers 63 82 58 SW 23 30.0 5 *
18:00 Thunderstorm with light rainshowers 69 74 61 W 5 30.0 10 77
17:00 Thunderstorm with light rainshowers 71 63 59 WSW 6 30.0 15 78
16:00 Partly Cloudy 75   51 55 NE 3 30.0 30 80
15:00 Partly Cloudy 73 50 53 E 2 30.0 30 77
14:00 Mainly Sunny 70 66 58 calm 30.1 30 76
13:00 Partly Cloudy 67 71 57 calm 30.1 30 *
N/A
Not available
 ↑ 
Highest temperature
 ↓ 
Lowest temperature
*
Value not significant.

If you require additional historical weather information, please visit Climate Data Online.